sensor_id;sensor_type;location;lat;lon;timestamp;P1;durP1;ratioP1;P2;durP2;ratioP2
32705;SDS011;19094;50.972;3.538;2022-11-20T00:01:05;69.20;;;28.63;;
32705;SDS011;19094;50.972;3.538;2022-11-20T00:03:39;75.25;;;29.63;;
32705;SDS011;19094;50.972;3.538;2022-11-20T00:06:13;71.03;;;30.05;;
32705;SDS011;19094;50.972;3.538;2022-11-20T00:08:42;74.47;;;29.52;;
32705;SDS011;19094;50.972;3.538;2022-11-20T00:11:08;69.32;;;28.70;;
32705;SDS011;19094;50.972;3.538;2022-11-20T00:13:37;66.47;;;28.92;;
32705;SDS011;19094;50.972;3.538;2022-11-20T00:16:05;77.90;;;28.45;;
32705;SDS011;19094;50.972;3.538;2022-11-20T00:18:32;73.40;;;29.70;;
32705;SDS011;19094;50.972;3.538;2022-11-20T00:21:03;66.38;;;28.08;;
32705;SDS011;19094;50.972;3.538;2022-11-20T00:23:28;70.78;;;29.08;;
32705;SDS011;19094;50.972;3.538;2022-11-20T00:25:54;72.82;;;29.88;;
32705;SDS011;19094;50.972;3.538;2022-11-20T00:28:20;75.88;;;29.75;;
32705;SDS011;19094;50.972;3.538;2022-11-20T00:30:46;79.25;;;30.65;;
32705;SDS011;19094;50.972;3.538;2022-11-20T00:33:12;76.00;;;29.65;;
32705;SDS011;19094;50.972;3.538;2022-11-20T00:35:38;71.10;;;28.95;;
32705;SDS011;19094;50.972;3.538;2022-11-20T00:38:04;69.88;;;28.10;;
32705;SDS011;19094;50.972;3.538;2022-11-20T00:40:30;67.03;;;28.20;;
32705;SDS011;19094;50.972;3.538;2022-11-20T00:42:55;69.28;;;27.70;;
32705;SDS011;19094;50.972;3.538;2022-11-20T00:45:22;72.03;;;28.65;;
32705;SDS011;19094;50.972;3.538;2022-11-20T00:47:48;64.72;;;26.83;;
32705;SDS011;19094;50.972;3.538;2022-11-20T00:50:14;70.07;;;28.77;;
32705;SDS011;19094;50.972;3.538;2022-11-20T00:52:40;68.72;;;28.10;;
32705;SDS011;19094;50.972;3.538;2022-11-20T00:55:06;66.85;;;28.48;;
32705;SDS011;19094;50.972;3.538;2022-11-20T00:57:32;66.22;;;26.50;;
32705;SDS011;19094;50.972;3.538;2022-11-20T01:00:00;71.28;;;29.05;;
32705;SDS011;19094;50.972;3.538;2022-11-20T01:02:27;71.30;;;29.20;;
32705;SDS011;19094;50.972;3.538;2022-11-20T01:04:52;74.78;;;29.75;;
32705;SDS011;19094;50.972;3.538;2022-11-20T01:07:18;74.28;;;28.67;;
32705;SDS011;19094;50.972;3.538;2022-11-20T01:09:44;71.38;;;29.27;;
32705;SDS011;19094;50.972;3.538;2022-11-20T01:12:11;71.10;;;28.48;;
32705;SDS011;19094;50.972;3.538;2022-11-20T01:14:38;71.82;;;28.80;;
32705;SDS011;19094;50.972;3.538;2022-11-20T01:17:05;74.25;;;28.63;;
32705;SDS011;19094;50.972;3.538;2022-11-20T01:19:31;72.10;;;27.65;;
32705;SDS011;19094;50.972;3.538;2022-11-20T01:21:57;68.60;;;28.52;;
32705;SDS011;19094;50.972;3.538;2022-11-20T01:24:22;75.60;;;30.30;;
32705;SDS011;19094;50.972;3.538;2022-11-20T01:26:49;70.63;;;29.60;;
32705;SDS011;19094;50.972;3.538;2022-11-20T01:29:20;76.40;;;30.55;;
32705;SDS011;19094;50.972;3.538;2022-11-20T01:31:47;75.47;;;29.20;;
32705;SDS011;19094;50.972;3.538;2022-11-20T01:34:13;73.72;;;28.88;;
32705;SDS011;19094;50.972;3.538;2022-11-20T01:36:42;75.03;;;28.58;;
32705;SDS011;19094;50.972;3.538;2022-11-20T01:39:13;69.40;;;29.33;;
32705;SDS011;19094;50.972;3.538;2022-11-20T01:41:40;79.13;;;30.58;;
32705;SDS011;19094;50.972;3.538;2022-11-20T01:47:35;70.78;;;29.30;;
32705;SDS011;19094;50.972;3.538;2022-11-20T01:50:14;68.72;;;27.90;;
32705;SDS011;19094;50.972;3.538;2022-11-20T01:55:27;71.28;;;28.20;;
32705;SDS011;19094;50.972;3.538;2022-11-20T01:57:58;73.93;;;30.10;;
32705;SDS011;19094;50.972;3.538;2022-11-20T02:00:26;69.40;;;27.70;;
32705;SDS011;19094;50.972;3.538;2022-11-20T02:02:54;74.63;;;29.98;;
32705;SDS011;19094;50.972;3.538;2022-11-20T02:08:26;73.25;;;27.70;;
32705;SDS011;19094;50.972;3.538;2022-11-20T02:10:55;117.97;;;42.38;;
32705;SDS011;19094;50.972;3.538;2022-11-20T02:13:21;77.47;;;30.52;;
32705;SDS011;19094;50.972;3.538;2022-11-20T02:18:33;73.38;;;28.35;;
32705;SDS011;19094;50.972;3.538;2022-11-20T02:21:02;74.47;;;28.27;;
32705;SDS011;19094;50.972;3.538;2022-11-20T02:27:18;70.47;;;28.80;;
32705;SDS011;19094;50.972;3.538;2022-11-20T02:29:44;68.63;;;27.90;;
32705;SDS011;19094;50.972;3.538;2022-11-20T02:32:19;69.00;;;27.25;;
32705;SDS011;19094;50.972;3.538;2022-11-20T02:37:18;71.43;;;27.45;;
32705;SDS011;19094;50.972;3.538;2022-11-20T02:39:46;67.13;;;28.70;;
32705;SDS011;19094;50.972;3.538;2022-11-20T02:42:14;64.78;;;28.05;;
32705;SDS011;19094;50.972;3.538;2022-11-20T02:44:40;66.88;;;27.88;;
32705;SDS011;19094;50.972;3.538;2022-11-20T02:47:05;60.67;;;26.80;;
32705;SDS011;19094;50.972;3.538;2022-11-20T02:49:31;69.88;;;27.45;;
32705;SDS011;19094;50.972;3.538;2022-11-20T02:51:57;69.40;;;27.52;;
32705;SDS011;19094;50.972;3.538;2022-11-20T02:54:24;67.85;;;28.00;;
32705;SDS011;19094;50.972;3.538;2022-11-20T02:56:52;69.03;;;27.40;;
32705;SDS011;19094;50.972;3.538;2022-11-20T02:59:17;73.90;;;28.00;;
32705;SDS011;19094;50.972;3.538;2022-11-20T03:01:43;74.93;;;30.08;;
32705;SDS011;19094;50.972;3.538;2022-11-20T03:04:10;74.00;;;29.15;;
32705;SDS011;19094;50.972;3.538;2022-11-20T03:06:35;69.95;;;29.08;;
32705;SDS011;19094;50.972;3.538;2022-11-20T03:09:01;72.97;;;30.50;;
32705;SDS011;19094;50.972;3.538;2022-11-20T03:11:28;75.00;;;30.17;;
32705;SDS011;19094;50.972;3.538;2022-11-20T03:13:54;73.90;;;30.13;;
32705;SDS011;19094;50.972;3.538;2022-11-20T03:16:22;77.95;;;29.83;;
32705;SDS011;19094;50.972;3.538;2022-11-20T03:18:51;84.30;;;31.42;;
32705;SDS011;19094;50.972;3.538;2022-11-20T03:21:18;79.30;;;29.42;;
32705;SDS011;19094;50.972;3.538;2022-11-20T03:23:45;73.70;;;29.85;;
32705;SDS011;19094;50.972;3.538;2022-11-20T03:28:46;76.65;;;29.73;;
32705;SDS011;19094;50.972;3.538;2022-11-20T03:31:21;78.13;;;29.55;;
32705;SDS011;19094;50.972;3.538;2022-11-20T03:33:52;75.32;;;28.83;;
32705;SDS011;19094;50.972;3.538;2022-11-20T03:36:18;72.28;;;27.77;;
32705;SDS011;19094;50.972;3.538;2022-11-20T03:38:45;82.35;;;31.42;;
32705;SDS011;19094;50.972;3.538;2022-11-20T03:41:15;90.05;;;33.47;;
32705;SDS011;19094;50.972;3.538;2022-11-20T03:44:03;102.78;;;33.33;;
32705;SDS011;19094;50.972;3.538;2022-11-20T03:46:30;93.72;;;34.67;;
32705;SDS011;19094;50.972;3.538;2022-11-20T03:48:56;107.65;;;36.15;;
32705;SDS011;19094;50.972;3.538;2022-11-20T03:51:23;96.28;;;34.40;;
32705;SDS011;19094;50.972;3.538;2022-11-20T03:53:51;96.05;;;34.70;;
32705;SDS011;19094;50.972;3.538;2022-11-20T03:56:22;100.03;;;35.40;;
32705;SDS011;19094;50.972;3.538;2022-11-20T03:58:49;106.18;;;35.97;;
32705;SDS011;19094;50.972;3.538;2022-11-20T04:01:19;106.15;;;36.33;;
32705;SDS011;19094;50.972;3.538;2022-11-20T04:03:46;108.35;;;35.50;;
32705;SDS011;19094;50.972;3.538;2022-11-20T04:06:13;106.22;;;36.33;;
32705;SDS011;19094;50.972;3.538;2022-11-20T04:08:42;99.00;;;34.08;;
32705;SDS011;19094;50.972;3.538;2022-11-20T04:11:12;104.70;;;34.80;;
32705;SDS011;19094;50.972;3.538;2022-11-20T04:13:45;99.60;;;34.65;;
32705;SDS011;19094;50.972;3.538;2022-11-20T04:16:12;103.57;;;36.20;;
32705;SDS011;19094;50.972;3.538;2022-11-20T04:18:37;100.88;;;35.72;;
32705;SDS011;19094;50.972;3.538;2022-11-20T04:21:05;110.75;;;36.05;;
32705;SDS011;19094;50.972;3.538;2022-11-20T04:23:31;101.22;;;35.33;;
32705;SDS011;19094;50.972;3.538;2022-11-20T04:26:04;105.15;;;35.00;;
32705;SDS011;19094;50.972;3.538;2022-11-20T04:28:32;99.45;;;34.45;;
32705;SDS011;19094;50.972;3.538;2022-11-20T04:31:03;100.40;;;33.72;;
32705;SDS011;19094;50.972;3.538;2022-11-20T04:33:31;98.45;;;34.63;;
32705;SDS011;19094;50.972;3.538;2022-11-20T04:36:05;108.88;;;33.67;;
32705;SDS011;19094;50.972;3.538;2022-11-20T04:38:34;97.80;;;33.55;;
32705;SDS011;19094;50.972;3.538;2022-11-20T04:41:00;96.95;;;34.15;;
32705;SDS011;19094;50.972;3.538;2022-11-20T04:43:28;97.65;;;34.00;;
32705;SDS011;19094;50.972;3.538;2022-11-20T04:45:54;96.78;;;32.13;;
32705;SDS011;19094;50.972;3.538;2022-11-20T04:48:22;88.53;;;31.73;;
32705;SDS011;19094;50.972;3.538;2022-11-20T04:50:52;91.35;;;33.50;;
32705;SDS011;19094;50.972;3.538;2022-11-20T04:53:20;100.97;;;33.38;;
32705;SDS011;19094;50.972;3.538;2022-11-20T04:55:46;86.90;;;31.98;;
32705;SDS011;19094;50.972;3.538;2022-11-20T04:58:12;84.68;;;31.52;;
32705;SDS011;19094;50.972;3.538;2022-11-20T05:00:39;85.93;;;31.63;;
32705;SDS011;19094;50.972;3.538;2022-11-20T05:03:05;84.55;;;30.90;;
32705;SDS011;19094;50.972;3.538;2022-11-20T05:05:31;82.65;;;30.10;;
32705;SDS011;19094;50.972;3.538;2022-11-20T05:07:58;84.78;;;31.08;;
32705;SDS011;19094;50.972;3.538;2022-11-20T05:10:24;83.68;;;30.98;;
32705;SDS011;19094;50.972;3.538;2022-11-20T05:12:51;76.13;;;27.92;;
32705;SDS011;19094;50.972;3.538;2022-11-20T05:15:17;67.20;;;26.27;;
32705;SDS011;19094;50.972;3.538;2022-11-20T05:17:49;68.80;;;27.30;;
32705;SDS011;19094;50.972;3.538;2022-11-20T05:22:43;70.55;;;28.02;;
32705;SDS011;19094;50.972;3.538;2022-11-20T05:25:10;69.25;;;26.77;;
32705;SDS011;19094;50.972;3.538;2022-11-20T05:27:36;79.78;;;28.98;;
32705;SDS011;19094;50.972;3.538;2022-11-20T05:30:03;70.35;;;27.30;;
32705;SDS011;19094;50.972;3.538;2022-11-20T05:32:30;66.70;;;26.85;;
32705;SDS011;19094;50.972;3.538;2022-11-20T05:34:56;71.70;;;27.60;;
32705;SDS011;19094;50.972;3.538;2022-11-20T05:37:22;72.00;;;27.27;;
32705;SDS011;19094;50.972;3.538;2022-11-20T05:39:47;73.50;;;29.35;;
32705;SDS011;19094;50.972;3.538;2022-11-20T05:42:13;70.45;;;28.58;;
32705;SDS011;19094;50.972;3.538;2022-11-20T05:44:58;71.55;;;27.80;;
32705;SDS011;19094;50.972;3.538;2022-11-20T05:47:25;68.35;;;26.33;;
32705;SDS011;19094;50.972;3.538;2022-11-20T05:49:53;67.90;;;26.30;;
32705;SDS011;19094;50.972;3.538;2022-11-20T05:52:19;66.32;;;26.27;;
32705;SDS011;19094;50.972;3.538;2022-11-20T05:54:45;65.40;;;25.02;;
32705;SDS011;19094;50.972;3.538;2022-11-20T05:57:11;64.78;;;25.85;;
32705;SDS011;19094;50.972;3.538;2022-11-20T05:59:38;62.85;;;24.38;;
32705;SDS011;19094;50.972;3.538;2022-11-20T06:02:04;65.68;;;25.42;;
32705;SDS011;19094;50.972;3.538;2022-11-20T06:04:29;67.10;;;25.45;;
32705;SDS011;19094;50.972;3.538;2022-11-20T06:06:55;62.80;;;24.50;;
32705;SDS011;19094;50.972;3.538;2022-11-20T06:09:21;66.63;;;24.77;;
32705;SDS011;19094;50.972;3.538;2022-11-20T06:11:46;68.65;;;25.65;;
32705;SDS011;19094;50.972;3.538;2022-11-20T06:14:12;65.20;;;25.60;;
32705;SDS011;19094;50.972;3.538;2022-11-20T06:16:37;63.05;;;23.88;;
32705;SDS011;19094;50.972;3.538;2022-11-20T06:19:05;69.70;;;25.70;;
32705;SDS011;19094;50.972;3.538;2022-11-20T06:21:30;65.40;;;25.08;;
32705;SDS011;19094;50.972;3.538;2022-11-20T06:23:57;62.90;;;24.75;;
32705;SDS011;19094;50.972;3.538;2022-11-20T06:26:24;67.32;;;25.58;;
32705;SDS011;19094;50.972;3.538;2022-11-20T06:28:52;68.13;;;26.00;;
32705;SDS011;19094;50.972;3.538;2022-11-20T06:31:19;70.57;;;27.55;;
32705;SDS011;19094;50.972;3.538;2022-11-20T06:33:47;67.35;;;25.30;;
32705;SDS011;19094;50.972;3.538;2022-11-20T06:36:15;70.95;;;26.08;;
32705;SDS011;19094;50.972;3.538;2022-11-20T06:38:42;69.45;;;25.58;;
32705;SDS011;19094;50.972;3.538;2022-11-20T06:41:12;67.70;;;25.38;;
32705;SDS011;19094;50.972;3.538;2022-11-20T06:43:40;76.68;;;27.50;;
32705;SDS011;19094;50.972;3.538;2022-11-20T06:46:08;64.22;;;24.75;;
32705;SDS011;19094;50.972;3.538;2022-11-20T06:48:35;69.03;;;26.85;;
32705;SDS011;19094;50.972;3.538;2022-11-20T06:51:05;69.43;;;24.42;;
32705;SDS011;19094;50.972;3.538;2022-11-20T06:53:31;77.13;;;25.98;;
32705;SDS011;19094;50.972;3.538;2022-11-20T06:55:57;74.22;;;26.63;;
32705;SDS011;19094;50.972;3.538;2022-11-20T06:58:23;74.10;;;27.42;;
32705;SDS011;19094;50.972;3.538;2022-11-20T07:00:52;75.57;;;26.38;;
32705;SDS011;19094;50.972;3.538;2022-11-20T07:03:18;74.47;;;26.10;;
32705;SDS011;19094;50.972;3.538;2022-11-20T07:05:44;73.93;;;27.23;;
32705;SDS011;19094;50.972;3.538;2022-11-20T07:08:11;87.63;;;27.35;;
32705;SDS011;19094;50.972;3.538;2022-11-20T07:10:36;81.22;;;26.67;;
32705;SDS011;19094;50.972;3.538;2022-11-20T07:13:03;76.60;;;26.70;;
32705;SDS011;19094;50.972;3.538;2022-11-20T07:15:31;79.43;;;25.65;;
32705;SDS011;19094;50.972;3.538;2022-11-20T07:18:00;76.05;;;24.63;;
32705;SDS011;19094;50.972;3.538;2022-11-20T07:20:28;79.57;;;26.05;;
32705;SDS011;19094;50.972;3.538;2022-11-20T07:22:56;80.22;;;26.35;;
32705;SDS011;19094;50.972;3.538;2022-11-20T07:25:24;70.85;;;24.90;;
32705;SDS011;19094;50.972;3.538;2022-11-20T07:27:51;73.80;;;24.65;;
32705;SDS011;19094;50.972;3.538;2022-11-20T07:30:18;78.80;;;26.60;;
32705;SDS011;19094;50.972;3.538;2022-11-20T07:32:50;79.43;;;26.58;;
32705;SDS011;19094;50.972;3.538;2022-11-20T07:35:17;73.70;;;25.67;;
32705;SDS011;19094;50.972;3.538;2022-11-20T07:37:43;77.07;;;26.10;;
32705;SDS011;19094;50.972;3.538;2022-11-20T07:40:12;77.97;;;26.33;;
32705;SDS011;19094;50.972;3.538;2022-11-20T07:42:38;78.68;;;25.92;;
32705;SDS011;19094;50.972;3.538;2022-11-20T07:45:04;80.70;;;26.40;;
32705;SDS011;19094;50.972;3.538;2022-11-20T07:47:35;79.18;;;27.67;;
32705;SDS011;19094;50.972;3.538;2022-11-20T07:50:01;83.07;;;27.45;;
32705;SDS011;19094;50.972;3.538;2022-11-20T07:52:28;74.57;;;26.60;;
32705;SDS011;19094;50.972;3.538;2022-11-20T07:54:54;75.15;;;26.52;;
32705;SDS011;19094;50.972;3.538;2022-11-20T07:57:19;86.72;;;28.45;;
32705;SDS011;19094;50.972;3.538;2022-11-20T07:59:45;75.88;;;27.85;;
32705;SDS011;19094;50.972;3.538;2022-11-20T08:02:11;79.03;;;26.48;;
32705;SDS011;19094;50.972;3.538;2022-11-20T08:04:39;77.50;;;25.83;;
32705;SDS011;19094;50.972;3.538;2022-11-20T08:07:05;69.18;;;24.60;;
32705;SDS011;19094;50.972;3.538;2022-11-20T08:09:30;66.07;;;25.02;;
32705;SDS011;19094;50.972;3.538;2022-11-20T08:11:57;76.25;;;25.90;;
32705;SDS011;19094;50.972;3.538;2022-11-20T08:14:41;71.25;;;23.40;;
32705;SDS011;19094;50.972;3.538;2022-11-20T08:17:07;67.43;;;23.88;;
32705;SDS011;19094;50.972;3.538;2022-11-20T08:19:34;67.53;;;24.48;;
32705;SDS011;19094;50.972;3.538;2022-11-20T08:21:59;64.50;;;24.27;;
32705;SDS011;19094;50.972;3.538;2022-11-20T08:24:26;67.78;;;24.10;;
32705;SDS011;19094;50.972;3.538;2022-11-20T08:26:52;66.72;;;24.23;;
32705;SDS011;19094;50.972;3.538;2022-11-20T08:29:17;68.47;;;24.30;;
32705;SDS011;19094;50.972;3.538;2022-11-20T08:31:44;70.50;;;23.77;;
32705;SDS011;19094;50.972;3.538;2022-11-20T08:34:10;69.85;;;25.83;;
32705;SDS011;19094;50.972;3.538;2022-11-20T08:36:36;71.30;;;26.30;;
32705;SDS011;19094;50.972;3.538;2022-11-20T08:39:02;59.38;;;23.10;;
32705;SDS011;19094;50.972;3.538;2022-11-20T08:41:30;59.78;;;22.90;;
32705;SDS011;19094;50.972;3.538;2022-11-20T08:43:59;65.82;;;24.33;;
32705;SDS011;19094;50.972;3.538;2022-11-20T08:46:33;63.63;;;25.02;;
32705;SDS011;19094;50.972;3.538;2022-11-20T08:49:01;64.47;;;23.40;;
32705;SDS011;19094;50.972;3.538;2022-11-20T08:51:27;51.85;;;20.60;;
32705;SDS011;19094;50.972;3.538;2022-11-20T08:53:52;53.00;;;21.40;;
32705;SDS011;19094;50.972;3.538;2022-11-20T08:56:19;62.72;;;21.65;;
32705;SDS011;19094;50.972;3.538;2022-11-20T08:58:44;51.30;;;20.02;;
32705;SDS011;19094;50.972;3.538;2022-11-20T09:01:11;57.58;;;21.42;;
32705;SDS011;19094;50.972;3.538;2022-11-20T09:03:38;49.67;;;19.40;;
32705;SDS011;19094;50.972;3.538;2022-11-20T09:06:05;58.70;;;21.55;;
32705;SDS011;19094;50.972;3.538;2022-11-20T09:08:32;53.90;;;20.67;;
32705;SDS011;19094;50.972;3.538;2022-11-20T09:10:58;50.22;;;18.83;;
32705;SDS011;19094;50.972;3.538;2022-11-20T09:13:24;56.63;;;20.65;;
32705;SDS011;19094;50.972;3.538;2022-11-20T09:16:01;48.97;;;19.73;;
32705;SDS011;19094;50.972;3.538;2022-11-20T09:18:30;49.80;;;18.65;;
32705;SDS011;19094;50.972;3.538;2022-11-20T09:20:59;51.20;;;18.92;;
32705;SDS011;19094;50.972;3.538;2022-11-20T09:23:26;54.00;;;18.75;;
32705;SDS011;19094;50.972;3.538;2022-11-20T09:25:55;48.38;;;19.85;;
32705;SDS011;19094;50.972;3.538;2022-11-20T09:28:37;53.70;;;19.27;;
32705;SDS011;19094;50.972;3.538;2022-11-20T09:31:11;47.13;;;17.88;;
32705;SDS011;19094;50.972;3.538;2022-11-20T09:33:46;40.28;;;16.35;;
32705;SDS011;19094;50.972;3.538;2022-11-20T09:36:12;43.22;;;17.13;;
32705;SDS011;19094;50.972;3.538;2022-11-20T09:38:39;40.17;;;15.07;;
32705;SDS011;19094;50.972;3.538;2022-11-20T09:41:05;42.53;;;16.70;;
32705;SDS011;19094;50.972;3.538;2022-11-20T09:49:25;31.50;;;12.65;;
32705;SDS011;19094;50.972;3.538;2022-11-20T09:54:47;27.83;;;10.82;;
32705;SDS011;19094;50.972;3.538;2022-11-20T09:57:15;24.15;;;8.55;;
32705;SDS011;19094;50.972;3.538;2022-11-20T09:59:49;19.75;;;8.80;;
32705;SDS011;19094;50.972;3.538;2022-11-20T10:05:04;20.92;;;8.25;;
32705;SDS011;19094;50.972;3.538;2022-11-20T10:10:01;24.10;;;11.00;;
32705;SDS011;19094;50.972;3.538;2022-11-20T10:18:03;16.77;;;7.00;;
32705;SDS011;19094;50.972;3.538;2022-11-20T10:20:47;21.60;;;8.68;;
32705;SDS011;19094;50.972;3.538;2022-11-20T10:29:23;21.70;;;9.05;;
32705;SDS011;19094;50.972;3.538;2022-11-20T10:32:14;14.55;;;5.35;;
32705;SDS011;19094;50.972;3.538;2022-11-20T10:34:49;15.07;;;6.40;;
32705;SDS011;19094;50.972;3.538;2022-11-20T10:37:18;15.52;;;6.22;;
32705;SDS011;19094;50.972;3.538;2022-11-20T10:42:34;16.75;;;5.22;;
32705;SDS011;19094;50.972;3.538;2022-11-20T10:47:53;11.02;;;4.57;;
32705;SDS011;19094;50.972;3.538;2022-11-20T10:50:22;8.80;;;4.03;;
32705;SDS011;19094;50.972;3.538;2022-11-20T10:53:04;17.70;;;5.85;;
32705;SDS011;19094;50.972;3.538;2022-11-20T10:55:50;7.60;;;3.83;;
32705;SDS011;19094;50.972;3.538;2022-11-20T11:01:31;13.02;;;5.35;;
32705;SDS011;19094;50.972;3.538;2022-11-20T11:07:16;19.55;;;8.60;;
32705;SDS011;19094;50.972;3.538;2022-11-20T11:09:53;12.07;;;4.82;;
32705;SDS011;19094;50.972;3.538;2022-11-20T11:12:21;9.88;;;3.50;;
32705;SDS011;19094;50.972;3.538;2022-11-20T11:14:50;10.55;;;4.32;;
32705;SDS011;19094;50.972;3.538;2022-11-20T11:17:25;7.18;;;3.35;;
32705;SDS011;19094;50.972;3.538;2022-11-20T11:19:58;10.05;;;4.38;;
32705;SDS011;19094;50.972;3.538;2022-11-20T11:22:55;10.73;;;4.03;;
32705;SDS011;19094;50.972;3.538;2022-11-20T11:25:32;21.13;;;3.67;;
32705;SDS011;19094;50.972;3.538;2022-11-20T11:28:21;11.15;;;4.18;;
32705;SDS011;19094;50.972;3.538;2022-11-20T11:30:51;14.65;;;4.80;;
32705;SDS011;19094;50.972;3.538;2022-11-20T11:35:48;9.88;;;4.97;;
32705;SDS011;19094;50.972;3.538;2022-11-20T11:38:58;9.30;;;4.35;;
32705;SDS011;19094;50.972;3.538;2022-11-20T11:43:55;10.90;;;4.07;;
32705;SDS011;19094;50.972;3.538;2022-11-20T11:46:53;9.32;;;4.45;;
32705;SDS011;19094;50.972;3.538;2022-11-20T11:49:21;10.95;;;4.10;;
32705;SDS011;19094;50.972;3.538;2022-11-20T11:52:02;8.52;;;5.00;;
32705;SDS011;19094;50.972;3.538;2022-11-20T11:57:05;17.02;;;6.30;;
32705;SDS011;19094;50.972;3.538;2022-11-20T11:59:57;13.43;;;5.07;;
32705;SDS011;19094;50.972;3.538;2022-11-20T12:08:23;11.02;;;4.90;;
32705;SDS011;19094;50.972;3.538;2022-11-20T12:11:43;13.70;;;3.45;;
32705;SDS011;19094;50.972;3.538;2022-11-20T12:17:02;10.70;;;5.65;;
32705;SDS011;19094;50.972;3.538;2022-11-20T12:19:33;13.48;;;4.38;;
32705;SDS011;19094;50.972;3.538;2022-11-20T12:25:14;12.35;;;6.63;;
32705;SDS011;19094;50.972;3.538;2022-11-20T12:30:16;10.98;;;4.82;;
32705;SDS011;19094;50.972;3.538;2022-11-20T12:39:07;10.55;;;5.18;;
32705;SDS011;19094;50.972;3.538;2022-11-20T12:50:51;7.63;;;3.15;;
32705;SDS011;19094;50.972;3.538;2022-11-20T13:01:50;4.28;;;2.10;;
32705;SDS011;19094;50.972;3.538;2022-11-20T13:06:47;6.05;;;2.97;;
32705;SDS011;19094;50.972;3.538;2022-11-20T13:09:15;4.35;;;2.90;;
32705;SDS011;19094;50.972;3.538;2022-11-20T13:11:48;3.03;;;1.95;;
32705;SDS011;19094;50.972;3.538;2022-11-20T13:19:16;4.60;;;1.92;;
32705;SDS011;19094;50.972;3.538;2022-11-20T13:21:47;4.00;;;1.85;;
32705;SDS011;19094;50.972;3.538;2022-11-20T13:24:25;4.85;;;1.67;;
32705;SDS011;19094;50.972;3.538;2022-11-20T13:29:41;2.57;;;1.60;;
32705;SDS011;19094;50.972;3.538;2022-11-20T13:32:20;2.58;;;1.65;;
32705;SDS011;19094;50.972;3.538;2022-11-20T13:34:59;2.50;;;1.58;;
32705;SDS011;19094;50.972;3.538;2022-11-20T13:37:31;3.22;;;2.00;;
32705;SDS011;19094;50.972;3.538;2022-11-20T13:40:11;3.08;;;2.08;;
32705;SDS011;19094;50.972;3.538;2022-11-20T13:47:53;4.38;;;2.17;;
32705;SDS011;19094;50.972;3.538;2022-11-20T13:50:21;3.60;;;2.42;;
32705;SDS011;19094;50.972;3.538;2022-11-20T13:55:59;4.53;;;2.50;;
32705;SDS011;19094;50.972;3.538;2022-11-20T13:58:58;5.15;;;2.50;;
32705;SDS011;19094;50.972;3.538;2022-11-20T14:01:35;4.35;;;2.80;;
32705;SDS011;19094;50.972;3.538;2022-11-20T14:04:26;12.52;;;8.30;;
32705;SDS011;19094;50.972;3.538;2022-11-20T14:06:53;7.55;;;3.33;;
32705;SDS011;19094;50.972;3.538;2022-11-20T14:09:27;7.28;;;3.15;;
32705;SDS011;19094;50.972;3.538;2022-11-20T14:11:56;7.30;;;4.05;;
32705;SDS011;19094;50.972;3.538;2022-11-20T14:14:25;6.72;;;3.67;;
32705;SDS011;19094;50.972;3.538;2022-11-20T14:17:08;7.68;;;3.60;;
32705;SDS011;19094;50.972;3.538;2022-11-20T14:19:42;8.85;;;3.67;;
32705;SDS011;19094;50.972;3.538;2022-11-20T14:22:24;5.72;;;3.40;;
32705;SDS011;19094;50.972;3.538;2022-11-20T14:27:56;6.32;;;3.45;;
32705;SDS011;19094;50.972;3.538;2022-11-20T14:30:24;9.43;;;3.70;;
32705;SDS011;19094;50.972;3.538;2022-11-20T14:32:54;14.20;;;3.13;;
32705;SDS011;19094;50.972;3.538;2022-11-20T14:35:34;10.15;;;3.45;;
32705;SDS011;19094;50.972;3.538;2022-11-20T14:38:02;10.25;;;2.92;;
32705;SDS011;19094;50.972;3.538;2022-11-20T14:40:34;12.57;;;4.22;;
32705;SDS011;19094;50.972;3.538;2022-11-20T14:43:01;19.67;;;6.55;;
32705;SDS011;19094;50.972;3.538;2022-11-20T14:45:52;10.27;;;3.05;;
32705;SDS011;19094;50.972;3.538;2022-11-20T14:48:46;15.65;;;4.28;;
32705;SDS011;19094;50.972;3.538;2022-11-20T14:51:24;24.20;;;5.78;;
32705;SDS011;19094;50.972;3.538;2022-11-20T14:53:56;17.88;;;3.90;;
32705;SDS011;19094;50.972;3.538;2022-11-20T14:56:32;14.65;;;2.80;;
32705;SDS011;19094;50.972;3.538;2022-11-20T14:58:59;19.60;;;3.90;;
32705;SDS011;19094;50.972;3.538;2022-11-20T15:01:27;18.55;;;3.10;;
32705;SDS011;19094;50.972;3.538;2022-11-20T15:03:59;13.80;;;3.67;;
32705;SDS011;19094;50.972;3.538;2022-11-20T15:06:34;15.90;;;3.95;;
32705;SDS011;19094;50.972;3.538;2022-11-20T15:09:02;16.45;;;4.40;;
32705;SDS011;19094;50.972;3.538;2022-11-20T15:11:31;17.63;;;3.25;;
32705;SDS011;19094;50.972;3.538;2022-11-20T15:14:03;22.05;;;3.38;;
32705;SDS011;19094;50.972;3.538;2022-11-20T15:16:31;14.50;;;3.30;;
32705;SDS011;19094;50.972;3.538;2022-11-20T15:18:57;21.70;;;3.90;;
32705;SDS011;19094;50.972;3.538;2022-11-20T15:21:25;21.45;;;5.03;;
32705;SDS011;19094;50.972;3.538;2022-11-20T15:23:55;17.27;;;3.17;;
32705;SDS011;19094;50.972;3.538;2022-11-20T15:26:24;16.25;;;3.50;;
32705;SDS011;19094;50.972;3.538;2022-11-20T15:28:51;17.90;;;2.88;;
32705;SDS011;19094;50.972;3.538;2022-11-20T15:31:19;24.05;;;3.85;;
32705;SDS011;19094;50.972;3.538;2022-11-20T15:33:47;19.73;;;2.95;;
32705;SDS011;19094;50.972;3.538;2022-11-20T15:36:13;23.05;;;4.07;;
32705;SDS011;19094;50.972;3.538;2022-11-20T15:38:39;15.90;;;3.63;;
32705;SDS011;19094;50.972;3.538;2022-11-20T15:41:07;18.05;;;3.97;;
32705;SDS011;19094;50.972;3.538;2022-11-20T15:43:35;22.85;;;4.53;;
32705;SDS011;19094;50.972;3.538;2022-11-20T15:46:02;21.30;;;3.92;;
32705;SDS011;19094;50.972;3.538;2022-11-20T15:48:53;20.73;;;3.55;;
32705;SDS011;19094;50.972;3.538;2022-11-20T15:53:46;19.27;;;4.32;;
32705;SDS011;19094;50.972;3.538;2022-11-20T15:56:12;17.50;;;4.72;;
32705;SDS011;19094;50.972;3.538;2022-11-20T15:58:40;27.15;;;4.95;;
32705;SDS011;19094;50.972;3.538;2022-11-20T16:01:09;19.48;;;3.90;;
32705;SDS011;19094;50.972;3.538;2022-11-20T16:03:42;25.83;;;3.53;;
32705;SDS011;19094;50.972;3.538;2022-11-20T16:06:08;31.40;;;5.80;;
32705;SDS011;19094;50.972;3.538;2022-11-20T16:08:34;17.42;;;3.33;;
32705;SDS011;19094;50.972;3.538;2022-11-20T16:11:00;26.58;;;3.90;;
32705;SDS011;19094;50.972;3.538;2022-11-20T16:13:26;23.45;;;4.30;;
32705;SDS011;19094;50.972;3.538;2022-11-20T16:16:17;17.67;;;4.22;;
32705;SDS011;19094;50.972;3.538;2022-11-20T16:18:45;26.60;;;4.30;;
32705;SDS011;19094;50.972;3.538;2022-11-20T16:21:11;21.65;;;4.00;;
32705;SDS011;19094;50.972;3.538;2022-11-20T16:23:38;22.23;;;4.70;;
32705;SDS011;19094;50.972;3.538;2022-11-20T16:26:15;22.88;;;4.15;;
32705;SDS011;19094;50.972;3.538;2022-11-20T16:28:45;22.63;;;4.55;;
32705;SDS011;19094;50.972;3.538;2022-11-20T16:31:13;27.30;;;4.35;;
32705;SDS011;19094;50.972;3.538;2022-11-20T16:33:41;15.00;;;3.72;;
32705;SDS011;19094;50.972;3.538;2022-11-20T16:36:11;24.73;;;5.10;;
32705;SDS011;19094;50.972;3.538;2022-11-20T16:38:38;17.83;;;4.25;;
32705;SDS011;19094;50.972;3.538;2022-11-20T16:41:04;30.13;;;5.28;;
32705;SDS011;19094;50.972;3.538;2022-11-20T16:43:42;19.73;;;4.80;;
32705;SDS011;19094;50.972;3.538;2022-11-20T16:46:10;28.73;;;5.63;;
32705;SDS011;19094;50.972;3.538;2022-11-20T16:48:36;23.05;;;4.63;;
32705;SDS011;19094;50.972;3.538;2022-11-20T16:51:03;23.20;;;5.78;;